Gaslog data for Smalldisplacementfreak's Daily Driver

Go Back   Gas Savers - Fuel Efficiency Forum > Garage > Smalldisplacementfreak's Daily Driver
Add Garage Entry Top Ten Entries Search the Garage


Welcome, non logged-in user
Your Garage


Gaslog data for Smalldisplacementfreak's Daily Driver
Date Distance Fuel Used Cost of Fuel Notes MPG(US)
12/11/2013 395.8 11.997 3.459 32.99
11/21/2013 236.6 7.251 3.379 32.62
11/15/2013 367.6 10.969 3.419 33.51
11/10/2013 380.3 10.553 3.459 36.03
10/31/2013 390.9 12.145 3.499 32.18
09/28/2013 362.4 11.247 3.779 32.22
08/27/2013 318.9 9.493 3.639 33.59
08/20/2013 413 12.299 3.659 33.57
07/13/2013 404.8 11.601 3.879Issues with cooling34.89
07/07/2013 168.2 4.879 4.099with carwash 34.47
07/03/2013 366.1 10.68 3.839 34.27
06/13/2013 357.4 10.595 3.799 33.73
05/10/2013 296.8 8.771 3.819 33.83
05/05/2013 147.4 5.5752 3.999 26.43
05/03/2013 221.5 6.441 3.959 34.38
04/30/2013 367.3 10.815 3.699 33.96
04/21/2013 411.1 12.238 3.759 33.59
04/02/2013 406.9 11.299 3.859200000 Mile t-belt and tuneup 36.01
03/22/2013 317 9.18 4.139 34.53
03/14/2013 375.9 11.502 3.999 32.68
02/23/2013 378 10.799 4.399 35.00
02/17/2013 388.4 10.76 4.089 36.09
02/08/2013 225.3 6.266 3.989Fuel prices have gone up more!35.95
01/31/2013 271 8.245 3.699 32.86
01/17/2013 403 12.004 3.499 33.57
01/04/2013 397.6 11.219 3.699Car wash too. Total bill $48.5035.43
12/21/2012 326.5 9.724 3.599 33.57
12/12/2012 353.3 10.272 3.699 34.39
12/01/2012 220.2 6.426 3.579 34.26
11/18/2012 176.2 5.387 3.619Just topping off. 188784 miles total.32.70
11/09/2012 254.5 7.744 3.939Costco gas lines were enormous, hence my higher cost because I didn't want to wait. 32.86
11/01/2012 350.3 10.673 4.099 32.82
10/12/2012 151.2 4.362 4.699 34.66
10/05/2012 127.9 3.888 4.759Wow gas prices are high! Hahahahahaahhaha...it's the end of the world as we know it!32.89
10/01/2012 319.6 9.724 0 32.86
09/19/2012 342.9 10.556 3.979 32.48
09/07/2012 366.5 11.492 3.95918706531.89
08/12/2012 213.6 7.236 3.939Fuel prices have been on a quick rise. 29.51
06/30/2012 286.9 8.113 3.759Car wash.35.36
06/21/2012 387.4 10.932 3.659 35.43
06/13/2012 404.7 11.844 3.799 34.16
06/01/2012 365.3 11.086 4.059 32.95
05/01/2012 387.5 11.127 3.999 34.82
04/22/2012 342.9 9.608 4.059 35.68
04/12/2012 178.6 5.705 4.119 31.30
03/31/2012 310.2 9.169 4.199 33.83
03/18/2012 379.2 11.459 4.259$48.80 total @ Costco!!! 33.09
03/10/2012 359.2 10.446 4.499$47 Total!34.38
02/24/2012 331.3 10.121 4.199$42.5 32.73
02/15/2012 369.3 11.182 3.779$42.26...cost of fuel is going up as predicted. 33.02
02/08/2012 351.4 11.288 3.699 31.13
01/25/2012 369.3 10.558 3.599$38 Total34.97
01/15/2012 302.7 8.383 3.579$30.00 total at Costco. Odomter = 18058836.10
01/08/2012 274 7.916 3.859$38.55 total at Shel with car wash34.61
01/03/2012 379.5 12.362 3.519$43.50 total at Costco. 180011 miles on odometer!!! Thank you Lord for such a great car! 30.69
12/15/2011 381.1 11.915 3.399$40.5031.98
12/08/2011 327.4 10.696 3.459$3730.60
11/19/2011 269.8 8.335 30.5 32.36
11/13/2011 374 11.219 41.5$3.699/gal @ Costco33.33
11/05/2011 374.8 11.63 43.25$3.719/gal @ Costco32.22
10/30/2011 361.2 10.016 37.25Had a bad nozzle, so not sure if this is going to be accurate. $3.719/gal @ Costco.36.06
10/18/2011 392.4 11.642 44$3.779/gal @ Costco33.70
10/11/2011 378.7 11.416 42$3.679/gal @ Costco33.17
10/02/2011 405.3 12.035 45 33.67
09/25/2011 323 10.466 39.55 30.86
09/18/2011 381.4 10.002 38Total trip was 801.1 miles average 37.165 mpg! @18:4438.13
09/18/2011 213.9 5.891 22.5Topping off at Costco in RC before heading back home. @ 10:2336.30
09/15/2011 205.6 5.656 23.75Traveling up to SF @ 17:46 36.35
09/15/2011 156.2 4.231 16.5Topped off before heading off to SF @13:2636.91
09/13/2011 403 12.242 47$3.839/gal @ Costco!32.91
09/08/2011 390.3 10.81 41.5Been driving to work a lot lately...36.10
09/04/2011 293.6 8.782 32.75 33.43
09/01/2011 379.9 10.981 41.5 34.59
08/26/2011 426.6 12.019 43.5 35.49
08/21/2011 415.6 10.53 40Mostly freeway driving...nice! Tire pressure is really important! Duh!39.46
08/14/2011 381.2 12.502 47.5Been negligent on TPs, so hence the poorer MPG. :(30.49
08/06/2011 322.3 10.522 38.5 30.63
07/29/2011 413.4 11.319 43 36.52
07/23/2011 375.2 9.963 37.05Traveled to Mcgrath back to town, back to Mcgrath and back...37.65
07/20/2011 367.4 11.619 46$52 total with car wash...31.62
07/13/2011 358.2 10.386 38 34.48
06/30/2011 339.3 10.071 37.25 33.69
06/25/2011 339.4 10.203 38.25$3.749/gal @ Costco near 24 Hour Fitness33.26
06/14/2011 458.1 11.799 46$3.899/gal of regular @ Shell with Ralph's discount38.82
06/10/2011 435 12.698 49$3.859/gal @ Costco (other)34.25
06/06/2011 349.8 9.874 38.5$3.899/gal @ Costco35.42
06/02/2011 434.6 12.442 51.5$4.139/gal @ Mobil close to parents home.34.93
05/29/2011 394.5 11.541 45$3.899/gal @ Costco. Read news regarding the new 2012 VW Passat. TDI version is EPA'd for 43mpg! Outside of possible reliability problems(?), this may be my/our next car!!! Not bad priced too, can get a entry level TDI for $26k! 34.18
05/25/2011 429.2 11.541 48 37.18
05/21/2011 389.4 10.645 43 36.58
05/18/2011 363.5 10.676 43.55Driving back and forth for work, but rode the vanpool twice this week! Yay!34.04
05/14/2011 250.6 7 29.25Had to wash car due to bird dookie!!! X)35.80
05/12/2011 410.3 11.42 47.5Driving back and forth to work...35.92
05/06/2011 399.1 10.88 45.5 36.68
05/01/2011 378.5 10.82 45$4.159/gal @ Costco!!!34.98
04/26/2011 353.7 10.997 45.3$4.119/gal @ Costco! Return road trip from LV plus trip to work and errands. Road trip to LV netted 41.8 mpg! Return was filled with gusty winds, heads winds and slow and go traffic. Was on the throttle more than usual, perhaps, due to the heads winds and climbs. Return trip netted 32.16 mpg, so weighted round trip total was 36.14 mpg!!!32.16
04/22/2011 323.2 7.732 30.15$3.899/gal @ Chevron in LV41.80
04/21/2011 432.9 11.953 49$4.099/gal @ Costco36.21
04/13/2011 344.2 9.684 39.5$4.07/gal @ Costco. Drove to SD and back.35.54
04/08/2011 279.3 7.378 29.5$3.999/gal @ Costco. Had a fun surprise from friend who works at Kia - test rode the new Optima Hybrid. Looks like that'll be a next car! Good power, comfort and especially mileage!37.85
04/03/2011 428.9 11.678 46$3.939/gal @ Costco. Not sure, but it always seems to me that the summer blend works more efficiently in my car. Still doing the same with driving, keeping the speeds low and not heavy on the throttle, except for this morning since we needed to get to church on time...LOL! 36.72
03/26/2011 434.7 11.735 45.75$3.899/gal @ Costco! Practicing hyper-miling as I know how to. Kept all speeds at no more than speed limit unless I had to speed up to pass or something. Pretty much the same methods since last fill-up. I think I'm getting great mileage from a car that is 8 years old and 160k+miles! I love HONDA! Then again, I'm not sure about the next new car - should it be a Honda or not, since I don't feel that the new Honda's are keeping with the same spirit. Hyundai is looking good and so if VW. Hmmmm...asking God for wisdom and direction on all things37.04
03/17/2011 428.9 11.461 44Hypermiling to the best I know how...we'll see how I can keep this up. But 37mpg isn't bad at all!!!37.42
03/07/2011 398 11.522 44$3.819/gal @ Costco. Trying to hypermile a bit and slowed overall speed down to 62-65 ish. Trying not to exceed 65 unless passing or making room for others. This is getting crazy, but thankfully cars are paid off and don't drive around a whole lot. 34.54
03/01/2011 366.3 11.145 41$3.679/gal @ Costco32.86
02/20/2011 379.2 11.13 38.5$3.459 @ Costco!!!34.07
02/13/2011 396.2 11.194 38.5$3.439/gal of regular @ Shell near frwy... Peak Oil news is becoming much louder than ever before. Been contemplating, heavily, of getting a new car, but obviously not worth the cost analysis for a new car to make up for fuel costs and cost of car. So maintenance of existing cars is the best bet. Timing belt for wifey's car and new tires - looking at the Goodyear FuelMax tires. However, looks like the 2012 VW Passat Diesel is the way to go on the next car. As for the temporary need, I want the Civic Si sedan...but don't think a manual gearbox will do it for me in the long run. 35.39
02/08/2011 329.8 9.597 33Read wifey's car notes...34.36
02/02/2011 378.5 11.463 38.5 33.01
01/23/2011 387.2 11.456 38.25 33.79
01/16/2011 392 11.231 37.5POO=$91.6734.90
01/06/2011 371.6 11.215 37Okay, took the TP up to 38psi...got better results.33.13
12/26/2010 385.9 12.204 40.26POO = $91.41 heading on up. Predict going up to $150 to $200/barrel in this next year or two. Very dangerous...31.62
12/16/2010 375.5 11.966 39 31.38
12/07/2010 377.2 10.787 34.51 34.96
12/02/2010 376.1 11.555 36.5 32.54
11/23/2010 386.4 12.146 38.25Mileage went to kaput!!! But mostly street driving and has been cold...but still......31.81
11/14/2010 414.1 11.77 36Using the Ralph's card you get $0.10/gal off!!!35.18
11/07/2010 371.4 10.774 33.5$3.109/gal, but board said $3.159/gal... Pumped tires up to 38 psig to see if economy pick ups. This tank wasn't as bad as I thought, but the fuel light comes on early now.34.47
10/31/2010 379.8 11.565 37New tires are offering less mileage. May have to increase tire pressures to see if that will change anything.32.84
10/23/2010 404.4 11.41 36.5New tires - Pirelli P6 - Change out when car approaches 200k miles. Oil change also was done today.35.44
10/15/2010 412.8 11.721 37.5 35.21
10/03/2010 393.3 10.707 34.25Had to get gas down at SD before tri...should have gotten gas near home.36.73
09/25/2010 376.2 12.25 36 30.71
09/07/2010 416.3 10.837 32.5 38.41
09/01/2010 365.1 12.505 37.5 29.19
08/25/2010 385.4 11.537 35.75 33.40
08/19/2010 403.6 11.791 37.25 34.22
08/15/2010 378.1 11.337 34 33.35
08/15/2010 378.1 11.337 34 33.35
08/10/2010 433.5 12.034 38.5 36.02
08/05/2010 400.2 12.581 4149 with car wash31.80
08/01/2010 333.5 9.174 28.25 36.35
07/24/2010 441.2 12.66 40.5Odometer: 150367miles! Car is getting better gas mileage as it gets older.34.84
07/15/2010 385.7 13.128 42Mileage went kaput! Check engine light on... Mileage: 149925!!!29.37
07/07/2010 425.1 12.186 38.5 34.88
07/01/2010 330.4 10.237 32.75PTL!!!32.27
06/25/2010 376.2 10.992 34.5 34.22
06/17/2010 426.4 11.635 36.75 36.64
06/07/2010 373.5 12.1 37.5 30.86
06/01/2010 397 10.969 33.55Went to SD and back! Thank you Lord!!!36.19
05/25/2010 380.8 11.938 37 31.89
05/20/2010 435.1 10.95 33.5Chevron near work...39.73
05/10/2010 416 13.206 42.25$3.199/gal @ Shell. Previous fill up was with Chevron Station. The tank is supposed to be only 13.2 gallons.31.50
05/06/2010 397.6 11.796 37.5Beloved Aunty Mary passed away and went to the Lord this morning at 1:28am 33.70
04/29/2010 396.3 10.94 35$3.199/gal of regular...going up again!!!36.22
04/23/2010 379.1 11.085 34.8Thankful!34.19
04/15/2010 384.9 11.553 36.5Praise God!33.31
04/10/2010 373.2 10.524 33.25Getting ready to go to SD. Car washed and oil changed.35.46
04/01/2010 428.6 12.266 38.75Been driving to work a lot...34.94
03/25/2010 425.6 12.029 38 35.38
03/18/2010 453.3 11.395 36Weird...car likes Chevron fuel? Went back to Shell this fill...we'll see. Most likely a fluke.39.78
03/13/2010 396.3 13.29 40.65Weird...car specs show 13.2 gal fuel tank. Filled at 13.29 gal. 29.81
03/05/2010 410.8 11.294 35$0.085/mile36.37
02/25/2010 435.9 12.17 36.5 35.81
02/06/2010 401.9 10.337 31$2.999/gal of regular @ Shell38.87
02/01/2010 408 12.68 36$2.839/gal @ Costco32.17
01/28/2010 300.6 8.595 24.75$2.879 @ Costco34.97
01/22/2010 365.6 11.003 33$2.99/gal of regular at Shell33.22
01/17/2010 406.1 11.767 36 34.51
01/08/2010 400 11.516 35$3.039/gal of regular at Shell down south...34.73
12/30/2009 353.7 11.003 33$2.99/gal of regular at Shell. Prices are going up again.32.14
12/25/2009 363.8 11.32 33.5$2.959/gal for Christmas!!! 32.13
12/16/2009 394 11.382 33Used Shell coupon for $2 off. The cashier charged me $33 but gave $2 cash back. Also did oil change today. Planted tree from Dorann in memory of baby. Thank you Lord for Your Love and Providence. 34.61
12/05/2009 399.3 12.072 35Switched back to Shell gasoline.33.07
11/27/2009 368.5 11.623 33Costco gas is cheaper, but don't get the same mileage as Shell. 31.7 mpg versus 35mpg Got Costco gas again, but will have to do the math to see if it is worth it per mpg. God is great! Thankful for Him, friends and family. Been rough for wifey, but I pray that she will heal from this quickly. She is doing better and other things are keeping her busy. We have to go back to work next week, but also thankful for having jobs.31.70
11/21/2009 376.6 10.487 29.35Switched to Costco gas this time around. Missed logging a week due to loosing the receipts. Had a bad week prior - lost baby at 17 weeks. Baby is with Jesus now - that which I am thankful for. So many people showed us so much love and concern, I can't express how grateful I feel. It has been a rough month more or less, starting off with my calf muscle, migrating over to the stomach flu, then the miscarriage, then my birthday, then my head cold, now again thankfully off for the week.35.91
10/28/2009 413.7 10.586 31.75$2.999/gal of regular. Does winter blend work better on my car?39.07
10/21/2009 384 11.253 33.75$2.999/gal of regular at Shell...34.12
10/19/2009 313.2 7.553 22.5Regular was $2.979 @ Shell in Gustine, CA on the way home from SF. Thank you Lord for a wonderful and safe trip. We pray baby and mommy are healthy.41.46
10/16/2009 217.4 6.018 19.25Filled up at Harris Ranch heading into SF and meeting up with Charles for dinner. 36.12
10/16/2009 257.1 7.582 23.5Filled up and driving up to SF for NWRSF1/233.90
10/09/2009 98.4 3.025 15.25Car wash included!32.52
10/06/2009 417.4 12.101 37.5 34.49
09/28/2009 412 12.101 37.5 34.04
09/20/2009 428.1 11.543 37.5$3.249/gal of regular at Shell in Barstow (Lenwood). From home to Vegas, a small bit around Vegas and then all the way to Lenwood to Del Taco, finished lunch, and then the low fuel warning light came on.37.08
09/18/2009 210.8 6.131 19Filled up to go to Vegas. $3.099/gal of regular @ Shell34.38
09/13/2009 359.1 10.447 33$3.159/gal at Shell34.37
09/09/2009 408.6 11.293 35 36.18
09/05/2009 336.1 10.648 33Filled up to go to SD31.56
08/28/2009 398.5 12.003 36$2.99/gal of regular @ Shell33.20
08/11/2009 395.4 11.931 36.5$3.059/gal of regular at Shell. Costco gas was $2.919/gal...$1.67 I could have not used33.14
08/03/2009 344.3 10.475 31$2.959/gal...gas is going up and up and up!!!32.86
07/29/2009 391.1 11.297 32.75 34.61
07/21/2009 398.1 11.719 33.5 33.97
07/12/2009 419 12.418 36$2.899/gal of regular @ Shell...whew, going down a bit33.74
07/05/2009 374.4 11.263 34$3.019/gal of regular @ Shell near DLR. Had to coming back from Ado's.33.24
06/24/2009 409.9 11.003 33$2.999/gal of regular at Shell. Road trip to Santa Barbara and back.37.25
06/16/2009 378.8 11.172 33.5$2.999/gal of regular @ Shell33.90
06/07/2009 384 11.521 33.4$2.899/gal of regular. I'm laughing at those people who just bought SUVs. I'm just waiting for the day we hit $4+ gasoline again...then to $5, $6, $7+ gallons. Energy crisis here we come! I don't mean to be unconcerned for others, I'm being concerned for the well being of who and where we are. People are just so blinded, but they also cannot be blamed for they not know.33.33
05/29/2009 419.8 11.319 31$2.739/gal at Shell.37.08
05/22/2009 399 12.124 32$2.639/gal of regular at Shell32.90
05/12/2009 345.7 10.267 25.25$2.459/gal of regular - prices are creeping up again!33.67
05/08/2009 336.6 9.794 23.5 34.36
05/01/2009 400.1 10.655 24.5$2.299/gal of regular @ Shell37.55
04/22/2009 402.5 13.038 30.5$2.339/gal of regular at Shell30.87
04/09/2009 430.1 11.971 28$2.339/gal of regular35.92
03/31/2009 354.5 10.459 23$2.199/gal of regular33.89
03/24/2009 390.6 11.441 24.7$2.159/gal of regular at Shell. Prices creeping up.34.14
03/19/2009 410.7 11.673 24.5$2.099/gal of regular35.18
03/13/2009 401.6 10.752 23$2.139/gal of regular @ Shell Drove to work all week!37.35
03/08/2009 365.1 10.6877 23.5$2.199/gal of regular34.16
03/01/2009 426.6 11.368 25 37.52
02/23/2009 379.6 11.397 25.75$2.259/gal of regular - gas prices are going up.33.30
02/13/2009 368.8 11.176 25.25$2.259/gal of regular. Gas is going up!!!32.99
02/06/2009 208.5 5.965 13 34.95
02/02/2009 329.6 10.319 21.25$2.059/gal of regular at Shell31.94
01/29/2009 394.5 11.67 24.5Driving to work a lot!33.80
01/24/2009 422.7 11.654 24 36.27
01/16/2009 427.7 12.756 25.5$1.999/gal of regular at Shell33.52
01/10/2009 383.2 11.873 23.5$1979/gal of regular at Shell32.27
12/31/2008 385.2 11.216 21.75$1.939/gal of regular at Chevron34.34
12/24/2008 358.4 11.938 21$1.759/gal of regular...going up a bit. Merry Christmas!!!30.02
12/14/2008 284.6 8.742 14.5Gosh I love these gasoline prices, but like I keep saying "Enjoy it while it lasts!" $1.659/gal of regular at Shell.32.55
12/07/2008 385 11.294 21$1.859/gal of regular - should have gone to the Shell closer to home. Darn! Next time Shell's closer to home is better.34.08
11/30/2008 342.9 8.766 17$1.939/gal of regular at Shell. Nice! 39.11
11/25/2008 416.9 13.111 27$2.0599/gal of regular at Shell! Enjoy it while we have it!31.79
11/16/2008 124.8 3.751 9$2.399/gal of regular at Shell Prayerfully the winds and fires will go away. The air quality has been very bad and there is ash everywhere.33.27
11/14/2008 290.4 8.129 19.5 35.72
11/07/2008 385.8 12.12 31.5$2.599/gal regular at Shell31.83
10/30/2008 345.5 10.214 29$2.839/gal regular at Shell33.82
10/22/2008 455.6 11.113 36Finished tank from last fill up in Gilroy. Total trip up to this tank was 960.1 miles. This is the highest mileage ever recorded - 40.99mpg!!! Trip average was 34.58mpg Gas was $3.239/gal of regular at Shell. Get it while you can!40.99
10/19/2008 275.8 8.149 29Chrevon at Gilroy. $3.559/gal regular33.84
10/17/2008 228.6 5.621 21$3.799/gal of regular at Harris Ranch Shell. Topped off before heading into SF.40.66
10/17/2008 101.8 2.881 9.5Topped off for SF trip. Pumped tires up to 34psi all around.35.33
10/16/2008 380.3 11.393 38.5$3.379/gal regular - Monrovia Shell. $5 car wash. 33.38
10/05/2008 177.2 4.886 17$3.478/gal woohoo! Really?36.26
10/03/2008 224.9 6.322 22.5 35.57
09/27/2008 413.2 11.802 42 35.01
09/20/2008 382 10.836 39 35.25
09/14/2008 250.5 6.848 25.6Haven't felt the effects of Hurricane Ike yet...36.58
09/11/2008 386 10.924 41.5 35.33
09/01/2008 397.1 11.201 43Lots of driving this weekend since it was Labor Day weekend. Filled up with Shell gasoline.35.45
08/29/2008 122.2 3.847 15Floored it many times and was running AC most of the time due to humid weather.31.76
08/25/2008 405.9 11.845 45$3.799/gal of regular at Costco. Drove regularly, minimal hyper-mile'g applications.34.26
08/10/2008 408.1 11.003 44Shell gas regular $3.99/gal37.08
08/06/2008 412.1 11.578 47$4.059/gal for regular at Costco.35.59
07/29/2008 448.7 12.203 51Costco gas is $4.179/gal of regular. 36.76
07/22/2008 438.3 12.096 52Costco is $4.299/gal regular. Victor just did timing belt and 100k service @ 112000 miles on the odometer36.23
07/14/2008 361.4 9.515 43Had to top off and wash car due to monsoon rain storm.37.98
07/08/2008 444.7 11.558 52Went to SD to visit family, drove all around SD area for shopping. Tried hypermiling to the best of my ability. Maintained 65mph on trip to SD and back. Did an oil change on 7/4. 38.47
07/04/2008 320.8 9.336 42Preparing for San Diego trip.34.36
06/25/2008 336.3 9.917 46$7 car wash. Prices have held pretty stable, but got a car wash, so Shell is a bit more there. Plus I didn't hyper mile as much as I should have, hence the regular average.33.91
06/18/2008 377.9 10.224 46$4.499/gal of regular at Costco36.96
06/11/2008 401.4 11.012 48$4.359/gal of regular at Costco!!! Wooohoo!!! As we continue on the march towards the end of the world as we know it. LOL!!!36.45
05/30/2008 398.8 10.718 45$45!!! to fill up my Civic!!! Argh!!! Oh well....$4.199/gal of regular at Shell.37.20
05/21/2008 277.6 8.248 31.5Costco gas is $3.819/gal regular. Oh well, it was fun while it lasted.33.65
05/15/2008 352.1 10.041 38.75Car wash also due to dried water spots - additional $5.00. 35.06
05/06/2008 393 11.53 44.49$3.859/gal of regular at Shell34.08
04/27/2008 388.8 11.142 43Started Vanpool so driving only 13.5 miles r/t per day. $3.859/gal34.89
04/20/2008 150.8 4.606 17.5$3.799/gal at Shell for regular! LOL!!! Thank you Lord for giving me the wisdom to get a Civic instead of an EVO.32.73
04/16/2008 382 10.67 39.25Went to Button Willow Raceway35.80
04/13/2008 384.2 10.632 39.75San Diego trip and just usual around town driving. I hope I can keep this up...36.13
04/08/2008 374.1 11.22 41.5Gas prices are really high now. Over $40 for a fill up on my little civic! But I knew this was coming, hence why I bought a Civic!!! Go HONDA!!!33.34
03/30/2008 151.4 4.381 15.5Increased tire pressures - Front 40psi, Rear 38psi.34.55
03/28/2008 406.5 10.454 37Gas gauge is weird, but towards the end it finally became more accurate like usual. Need to do 100k tune-up.38.88
03/22/2008 365.2 12.223 43.5Gas mileage has been getting worse. Been using air-con to cool off cabin after parking outside from work. 29.87
03/14/2008 217.2 6.107 21See Wife's gas log for the same date.35.56
03/10/2008 327 9.574 33.5Gas price is up!34.15
03/05/2008 340.5 10.176 35Prices have been moving up BIG time...$3.439/gal at Shell Here we go!!!33.46
02/24/2008 409.3 12.348 39.5Back to normal commute...33.14
02/18/2008 222.2 5.485 17Topped off fuel after Vegas trip. Total trip mileage was 549.5 and used up 14.322 gallons of fuel for a trip average of 38.36 mpg. We averaged 75mph, tried to keep it at 70mph, but traffic was going rather fast so I upped it to 80mph for keeping up during a majority of the trip, but kept it around 70mph as much as possible. Return trip was a lot slower due to traffic (everyone was going home) - around 40mph, hence the better mileage, plus my wife was driving.40.51
02/18/2008 327.3 8.837 30.3Home to Vegas. Accidentially filled it up with 89, so it cost more. Ack!!!37.03
02/16/2008 246.8 7.743 24Topped off for LV trip. Front tires at 40psi, rears at 38psi. Gas prices are going up again. $3.09/gal. Due to Venezuela? Or is it really an inkling to long term rise in gas prices. 31.87
02/11/2008 357.5 10.391 30.75Gas prices went down a bit to $2.959/gallon34.40
02/03/2008 337.3 10.003 29 33.71
01/27/2008 374.6 12.503 37.5Overflowed the tank. The nozzle didn't kick off properly. So 12.503 is not accurate. Not the Shell near home, it was a Shell near church.29.96
01/16/2008 75.2 2.673 8.5Parking the car for the weekend. Going to be a Laguna Seca running my EK.28.13
01/14/2008 346.8 10.628 34 32.63
01/06/2008 369.8 11.096 35.5 33.32
01/01/2008 320.4 9.689 3170% highway with speed at times above 80mph. Holiday traffic, so less stop and go.33.06
12/28/2007 297.6 9.181 29 32.41
12/21/2007 280.7 8.6 27 32.63
12/15/2007 347.3 10.604 33.5 32.75
12/09/2007 360.6 10.38 33 34.73
12/04/2007 232.9 7.347 23.5 31.70
12/01/2007 355 10.003 32Prices went down 10 cents. Traveled to Palm Desert, so mostly freeway driving.35.48
11/25/2007 69.5 1.969 3.299Bumped up front tires to 38psi and rears to 36psi35.29
11/24/2007 387.1 11.747 3.299 32.95
11/18/2007 366.2 10.609 3.299Did not check tires. 34.51
11/11/2007 160.9 4.448 3.269 36.17
11/09/2007 390.1 11.731 3.239Whoa prices really have shot up....no suprise. 33.25
11/01/2007 135.3 4.386 3.079Price of fuel is going up...30.84
10/28/2007 393.9 11.004 2.999 35.79


All times are GMT -6. The time now is 07:55 AM.


Copyright 2005-2008 GasSavers.Org